Owego, Iowa
Current Conditions -  °F | °C
As of 1:52 AM on Thursday 23 Oct 2014 (Local Time) from KSUX Reporting Station
Haze Haze  
Wind Chill: 59°   Ceiling: 400
Heat Index: 59°   Visibility: 5mi
Dew Point: 58°   Wind: 5mph
Humidity: 96%   Direction: 290°WNW
Pressure: 30.01"   Gusts: NA
Location:  42.3446°N, 96.2663°W
Report Text: KSUX 230652Z AUTO 29004KT 5SM BR OVC004 15/14 A3001 RMK AO2 RAE15 CIG 003V007 SLP160 P0000 T01500144
Loading
Personal Weather Stations






























Interactive Weather Map
Tropical Storm Tracking
New forecast layout! Learn more

10-Day Weather Forecast

Advertisements
Track Severe Weather on mobile